Time;durP1;ratioP1;P1;durP2;ratioP2;P2;SDS_P1;SDS_P2;PMS_P1;PMS_P2;Temp;Humidity;BMP_temperature;BMP_pressure;BME280_temperature;BME280_humidity;BME280_pressure;Samples;Min_cycle;Max_cycle;Signal;HPM_P1;HPM_P2
2021/10/22 00:00:26;;;;;;;10.82;2.15;;;;;;;7.18;83.09;101361.13;4996647;28;20049;-42
2021/10/22 00:02:51;;;;;;;11.52;2.45;;;;;;;7.22;81.99;101354.69;5014215;28;20465;-41
2021/10/22 00:05:17;;;;;;;12.25;2.30;;;;;;;7.21;82.87;101356.47;5014737;28;20033;-41
2021/10/22 00:07:42;;;;;;;18.52;2.78;;;;;;;7.22;82.43;101358.09;5014338;28;20117;-42
2021/10/22 00:10:09;;;;;;;17.90;2.40;;;;;;;7.16;83.00;101352.72;4996707;28;20021;-42
2021/10/22 00:12:34;;;;;;;12.35;2.38;;;;;;;7.16;82.55;101366.41;5014290;28;20041;-41
2021/10/22 00:15:00;;;;;;;18.42;2.30;;;;;;;7.10;82.63;101361.03;5014250;28;20022;-41
2021/10/22 00:17:25;;;;;;;11.45;2.50;;;;;;;7.06;82.94;101357.97;5014228;28;20029;-41
2021/10/22 00:19:51;;;;;;;12.63;2.17;;;;;;;6.96;82.98;101357.25;5013956;28;20096;-41
2021/10/22 00:22:16;;;;;;;13.75;2.00;;;;;;;6.95;84.38;101355.63;5013839;28;20042;-41
2021/10/22 00:24:41;;;;;;;9.90;2.03;;;;;;;6.91;83.45;101359.47;5013904;28;20021;-42
2021/10/22 00:27:07;;;;;;;20.58;2.35;;;;;;;6.93;83.10;101363.50;5013855;28;20022;-41
2021/10/22 00:29:32;;;;;;;11.23;2.75;;;;;;;6.95;82.92;101364.16;5013736;28;20021;-41
2021/10/22 00:31:57;;;;;;;9.10;1.95;;;;;;;6.92;82.60;101358.50;5014057;28;20115;-41
2021/10/22 00:34:23;;;;;;;11.85;2.45;;;;;;;6.89;83.04;101361.38;5014071;28;20068;-41
2021/10/22 00:36:48;;;;;;;8.57;1.90;;;;;;;6.85;82.80;101357.47;5013762;28;20022;-41
2021/10/22 00:39:14;;;;;;;10.57;1.85;;;;;;;6.83;82.82;101365.34;5013973;28;20033;-41
2021/10/22 00:41:40;;;;;;;13.40;1.90;;;;;;;6.84;82.33;101364.38;5013629;28;20029;-41
2021/10/22 00:44:05;;;;;;;19.23;2.50;;;;;;;6.85;82.27;101358.31;5013540;28;20488;-41
2021/10/22 00:46:33;;;;;;;8.95;2.03;;;;;;;6.79;82.43;101356.34;5013949;28;20021;-41
2021/10/22 00:48:58;;;;;;;13.55;2.40;;;;;;;6.83;82.14;101360.22;5013698;28;20021;-42
2021/10/22 00:51:24;;;;;;;11.15;1.90;;;;;;;6.82;82.58;101350.91;5016923;28;20041;-41
2021/10/22 00:53:50;;;;;;;12.00;1.88;;;;;;;6.86;80.97;101348.84;5017627;28;20026;-42
2021/10/22 00:56:16;;;;;;;10.48;2.10;;;;;;;6.90;81.10;101353.50;5018079;28;20346;-41
2021/10/22 00:58:42;;;;;;;7.05;1.73;;;;;;;6.89;80.70;101349.34;5017836;28;20105;-41
2021/10/22 01:01:08;;;;;;;12.93;1.98;;;;;;;6.91;80.50;101344.06;5017760;28;20376;-47
2021/10/22 01:03:33;;;;;;;18.42;2.53;;;;;;;6.94;78.92;101342.00;5017489;28;20026;-41
2021/10/22 01:06:00;;;;;;;12.88;2.22;;;;;;;6.98;78.55;101337.34;5017354;28;20025;-42
2021/10/22 01:08:28;;;;;;;7.82;1.98;;;;;;;7.03;79.55;101332.59;5017645;28;20026;-41
2021/10/22 01:10:53;;;;;;;11.48;2.00;;;;;;;7.00;78.66;101335.44;5017303;28;20420;-42
2021/10/22 01:13:19;;;;;;;13.13;2.33;;;;;;;7.06;78.98;101340.00;5017274;28;20072;-41
2021/10/22 01:15:44;;;;;;;11.50;1.85;;;;;;;6.95;77.94;101335.88;5017226;28;20072;-41
2021/10/22 01:18:09;;;;;;;13.88;2.15;;;;;;;7.04;77.74;101341.09;5017216;28;20049;-41
2021/10/22 01:20:39;;;;;;;7.82;1.90;;;;;;;6.99;77.97;101333.81;5017416;28;20457;-42
2021/10/22 01:23:05;;;;;;;9.50;1.77;;;;;;;7.00;77.50;101330.31;5017137;28;20033;-41
2021/10/22 01:25:30;;;;;;;13.38;2.17;;;;;;;6.98;78.95;101334.78;5017061;28;20033;-42
2021/10/22 01:27:56;;;;;;;10.15;1.50;;;;;;;6.99;78.64;101328.69;5017002;28;20544;-42
2021/10/22 01:30:24;;;;;;;9.27;1.65;;;;;;;7.05;76.60;101335.81;5016860;28;20033;-41
2021/10/22 01:33:00;;;;;;;11.60;1.75;;;;;;;6.99;77.58;101326.09;5016968;28;20488;-42
2021/10/22 01:35:27;;;;;;;12.57;1.80;;;;;;;6.99;77.84;101326.94;5016946;28;20108;-42
2021/10/22 01:37:52;;;;;;;8.68;1.77;;;;;;;7.01;76.89;101327.56;5016808;28;20049;-45
2021/10/22 01:40:17;;;;;;;8.68;1.73;;;;;;;7.08;75.91;101320.09;5016724;28;20102;-41
2021/10/22 01:42:42;;;;;;;8.60;1.95;;;;;;;7.09;76.01;101324.25;5016532;28;20112;-41
2021/10/22 01:45:08;;;;;;;13.05;1.83;;;;;;;7.11;75.76;101313.84;5017013;28;20036;-41
2021/10/22 01:47:34;;;;;;;16.50;1.70;;;;;;;7.09;75.41;101305.47;4999055;28;20040;-41
2021/10/22 01:49:59;;;;;;;7.65;1.42;;;;;;;7.12;75.22;101302.59;5016767;28;20377;-41
2021/10/22 01:52:25;;;;;;;13.45;1.90;;;;;;;7.04;75.68;101300.78;5017134;28;20034;-41
2021/10/22 01:54:50;;;;;;;14.10;1.70;;;;;;;7.01;74.90;101295.94;4998917;28;20049;-41
2021/10/22 01:57:15;;;;;;;9.25;1.80;;;;;;;7.06;76.62;101298.06;5016483;28;20460;-41
2021/10/22 01:59:41;;;;;;;15.80;1.92;;;;;;;7.05;75.78;101292.13;5016487;28;20034;-41
2021/10/22 02:02:06;;;;;;;11.40;1.88;;;;;;;7.01;76.72;101290.81;5015205;28;20025;-41
2021/10/22 02:04:33;;;;;;;11.68;1.75;;;;;;;7.04;74.92;101294.84;5016586;28;20101;-41
2021/10/22 02:06:59;;;;;;;7.72;2.00;;;;;;;6.99;75.03;101290.97;5016290;28;20026;-41
2021/10/22 02:09:24;;;;;;;11.35;1.60;;;;;;;6.98;75.43;101288.53;5016266;28;20044;-41
2021/10/22 02:11:49;;;;;;;5.82;1.27;;;;;;;6.98;75.97;101288.53;5016090;28;20385;-41
2021/10/22 02:14:15;;;;;;;7.82;1.80;;;;;;;7.01;75.47;101293.38;5016162;28;20026;-41
2021/10/22 02:16:41;;;;;;;10.85;1.85;;;;;;;7.03;75.63;101286.31;5016088;28;20358;-41
2021/10/22 02:19:07;;;;;;;11.05;2.03;;;;;;;7.15;74.88;101272.25;5016842;28;20025;-41
2021/10/22 02:21:32;;;;;;;8.35;1.63;;;;;;;7.08;75.31;101276.41;5016339;28;20112;-41
2021/10/22 02:23:57;;;;;;;10.52;1.60;;;;;;;7.09;76.14;101279.78;4998334;28;20022;-41
2021/10/22 02:26:23;;;;;;;14.50;3.08;;;;;;;7.09;76.48;101288.28;5016249;28;20025;-41
2021/10/22 02:28:48;;;;;;;9.50;1.85;;;;;;;7.10;74.45;101274.47;5015895;28;20021;-41
2021/10/22 02:31:15;;;;;;;10.73;1.73;;;;;;;7.13;74.91;101274.16;4998529;28;20501;-41
2021/10/22 02:33:41;;;;;;;10.48;1.70;;;;;;;7.13;74.53;101268.22;5016031;28;20105;-41
2021/10/22 02:36:06;;;;;;;10.38;2.13;;;;;;;7.15;74.29;101266.31;4998194;28;20025;-41
2021/10/22 02:38:32;;;;;;;10.23;1.88;;;;;;;7.21;74.38;101261.34;5016310;28;20033;-41
2021/10/22 02:40:57;;;;;;;10.55;2.00;;;;;;;7.18;74.73;101260.88;4998043;28;20033;-41
2021/10/22 02:43:22;;;;;;;7.57;2.08;;;;;;;7.13;76.49;101258.75;5015451;28;20052;-41
2021/10/22 02:45:48;;;;;;;9.88;1.95;;;;;;;7.15;76.21;101258.59;5015502;28;20034;-41
2021/10/22 02:48:13;;;;;;;16.25;2.25;;;;;;;7.18;75.69;101253.94;5015790;28;20022;-41
2021/10/22 02:50:39;;;;;;;13.07;2.08;;;;;;;7.25;75.39;101249.03;5015647;28;20065;-41
2021/10/22 02:53:04;;;;;;;14.18;2.25;;;;;;;7.27;76.03;101243.72;5015495;28;20022;-41
2021/10/22 02:55:29;;;;;;;15.40;2.22;;;;;;;7.31;75.43;101245.84;5015337;28;20034;-41
2021/10/22 02:57:55;;;;;;;9.55;1.80;;;;;;;7.29;76.64;101246.94;5015562;28;20029;-41
2021/10/22 03:00:21;;;;;;;16.33;2.10;;;;;;;7.27;77.88;101243.72;5015602;28;20064;-41
2021/10/22 03:02:47;;;;;;;8.32;1.77;;;;;;;7.21;76.26;101245.94;5015500;28;20052;-41
2021/10/22 03:05:12;;;;;;;10.93;1.52;;;;;;;7.23;76.40;101245.78;5015528;28;20022;-42
2021/10/22 03:07:39;;;;;;;13.07;1.90;;;;;;;7.22;77.36;101255.28;5015139;28;20025;-41
2021/10/22 03:10:06;;;;;;;10.52;1.95;;;;;;;7.27;76.71;101252.22;5015287;28;20029;-41
2021/10/22 03:12:31;;;;;;;13.77;2.22;;;;;;;7.32;77.77;101239.72;5015128;28;20034;-41
2021/10/22 03:14:56;;;;;;;11.02;1.67;;;;;;;7.48;76.16;101257.00;5015042;28;20380;-41
2021/10/22 03:17:22;;;;;;;10.95;1.70;;;;;;;7.50;76.84;101252.50;4997444;28;20469;-41
2021/10/22 03:19:47;;;;;;;10.50;1.88;;;;;;;7.58;76.58;101239.66;5015191;28;20017;-41
2021/10/22 03:22:13;;;;;;;9.40;1.95;;;;;;;7.73;77.44;101239.88;5014976;28;20025;-41
2021/10/22 03:24:38;;;;;;;14.32;1.73;;;;;;;7.58;78.03;101226.81;5015124;28;20044;-41
2021/10/22 03:27:10;;;;;;;14.15;1.92;;;;;;;7.63;79.60;101232.28;4997237;28;20038;-41
2021/10/22 03:29:35;;;;;;;11.82;1.80;;;;;;;7.60;80.65;101234.38;5014965;28;20037;-42
2021/10/22 03:32:01;;;;;;;10.88;1.90;;;;;;;7.54;80.66;101233.22;5015061;28;20029;-42
2021/10/22 03:34:26;;;;;;;9.85;1.85;;;;;;;7.68;80.57;101232.63;4997120;28;20022;-42
2021/10/22 03:36:51;;;;;;;11.93;1.90;;;;;;;7.68;79.74;101227.50;5014693;28;20109;-41
2021/10/22 03:39:16;;;;;;;8.85;1.83;;;;;;;7.56;79.95;101223.56;5014793;28;20034;-41
2021/10/22 03:41:42;;;;;;;12.85;1.90;;;;;;;7.53;80.02;101208.47;5014690;28;20018;-41
2021/10/22 03:44:07;;;;;;;11.43;2.20;;;;;;;7.61;80.39;101220.53;4996757;28;20038;-42
2021/10/22 03:46:32;;;;;;;12.77;1.83;;;;;;;7.71;80.30;101222.97;5014781;28;20430;-41
2021/10/22 03:48:57;;;;;;;15.02;2.17;;;;;;;7.73;79.75;101216.72;4996853;28;20477;-41
2021/10/22 03:51:23;;;;;;;14.93;2.10;;;;;;;7.78;80.94;101216.25;5014278;28;20061;-42
2021/10/22 03:53:48;;;;;;;13.73;1.70;;;;;;;7.83;80.76;101214.00;5014610;28;20088;-42
2021/10/22 03:56:13;;;;;;;17.55;2.67;;;;;;;7.85;81.14;101222.34;5014653;28;20022;-41
2021/10/22 03:58:39;;;;;;;13.43;1.92;;;;;;;7.89;82.32;101224.47;4996682;28;20026;-41
2021/10/22 04:01:04;;;;;;;8.45;1.63;;;;;;;8.04;82.17;101242.66;5014208;28;20018;-41
2021/10/22 04:03:29;;;;;;;11.65;2.00;;;;;;;8.10;82.50;101244.59;5014204;28;20036;-41
2021/10/22 04:05:54;;;;;;;10.60;1.65;;;;;;;8.14;82.81;101245.91;4996532;28;20435;-42
2021/10/22 04:08:20;;;;;;;15.52;1.63;;;;;;;8.18;83.70;101250.75;5014150;28;20027;-41
2021/10/22 04:10:45;;;;;;;6.15;1.60;;;;;;;8.21;83.82;101253.78;5014062;28;20025;-42
2021/10/22 04:13:11;;;;;;;12.43;2.00;;;;;;;8.29;83.30;101256.38;5014045;28;20362;-41
2021/10/22 04:15:40;;;;;;;14.75;1.77;;;;;;;8.35;83.77;101260.09;5013919;28;20079;-42
2021/10/22 04:18:05;;;;;;;6.28;1.60;;;;;;;8.44;84.21;101261.72;5014028;28;20030;-41
2021/10/22 04:20:30;;;;;;;11.45;1.90;;;;;;;8.49;83.72;101264.63;5014241;28;20096;-42
2021/10/22 04:22:58;;;;;;;13.57;3.10;;;;;;;8.47;82.96;101256.25;5013958;28;20025;-42
2021/10/22 04:25:24;;;;;;;15.40;2.15;;;;;;;8.48;83.66;101263.00;5013234;28;20025;-42
2021/10/22 04:27:49;;;;;;;8.73;1.50;;;;;;;8.51;83.70;101264.44;5013903;28;20084;-41
2021/10/22 04:30:15;;;;;;;10.75;2.13;;;;;;;8.61;83.37;101264.31;5014302;28;20473;-42
2021/10/22 04:32:40;;;;;;;7.60;1.88;;;;;;;8.63;82.96;101262.34;5013845;28;20029;-42
2021/10/22 04:35:05;;;;;;;10.73;2.42;;;;;;;8.76;82.95;101267.81;5013702;28;20140;-42
2021/10/22 04:37:44;;;;;;;9.55;1.80;;;;;;;8.68;83.11;101271.22;5014019;28;20026;-43
2021/10/22 04:42:54;;;;;;;11.70;1.92;;;;;;;8.80;80.80;101269.09;5013665;28;20583;-41
2021/10/22 04:45:20;;;;;;;8.93;1.73;;;;;;;8.79;81.43;101272.66;5013667;28;20022;-41
2021/10/22 04:47:45;;;;;;;9.43;1.80;;;;;;;8.89;79.90;101267.31;5013627;28;20421;-41
2021/10/22 04:50:11;;;;;;;5.53;1.50;;;;;;;8.94;79.88;101273.59;5013576;28;20024;-41
2021/10/22 04:52:37;;;;;;;9.93;1.67;;;;;;;8.88;80.26;101263.13;5013615;28;20026;-41
2021/10/22 04:55:04;;;;;;;12.68;1.65;;;;;;;8.93;79.77;101269.41;5013595;28;20432;-41
2021/10/22 04:57:30;;;;;;;8.13;1.45;;;;;;;8.96;78.41;101263.13;5013782;28;20080;-41
2021/10/22 04:59:55;;;;;;;10.88;2.05;;;;;;;8.91;79.02;101261.03;5013523;28;20419;-41
2021/10/22 05:02:20;;;;;;;12.70;2.45;;;;;;;8.97;78.17;101251.84;5013816;28;20034;-41
2021/10/22 05:04:45;;;;;;;10.57;1.70;;;;;;;8.94;79.73;101249.59;5014033;28;20026;-41
2021/10/22 05:07:11;;;;;;;9.00;1.60;;;;;;;8.92;77.70;101249.78;4995874;28;20030;-42
2021/10/22 05:09:36;;;;;;;8.50;1.95;;;;;;;9.00;77.56;101243.78;5013352;28;20025;-41
2021/10/22 05:12:07;;;;;;;8.38;1.58;;;;;;;8.89;78.65;101236.38;4995839;28;20022;-41
2021/10/22 05:14:34;;;;;;;9.30;1.70;;;;;;;9.00;77.74;101230.88;5013457;28;20026;-42
2021/10/22 05:17:00;;;;;;;9.55;1.63;;;;;;;8.99;76.20;101224.94;5013722;28;20529;-42
2021/10/22 05:19:25;;;;;;;7.03;1.63;;;;;;;8.91;76.72;101222.38;5013612;28;20080;-41
2021/10/22 05:21:50;;;;;;;9.60;1.70;;;;;;;8.83;76.32;101217.22;4995770;28;20401;-41
2021/10/22 05:24:15;;;;;;;9.88;1.60;;;;;;;8.85;74.96;101215.31;5013336;28;20025;-42
2021/10/22 05:26:41;;;;;;;10.48;1.52;;;;;;;8.80;75.21;101218.38;5013590;28;20052;-41
2021/10/22 05:29:06;;;;;;;9.05;1.67;;;;;;;8.71;75.62;101201.31;5013523;28;20026;-41
2021/10/22 05:31:32;;;;;;;8.23;1.55;;;;;;;8.77;75.92;101217.88;4995696;28;20034;-41
2021/10/22 05:33:57;;;;;;;5.80;1.17;;;;;;;8.81;73.81;101216.63;5013235;28;20472;-41
2021/10/22 05:36:23;;;;;;;11.60;1.73;;;;;;;8.80;73.85;101214.97;5014457;28;20565;-41
2021/10/22 05:38:51;;;;;;;10.15;1.70;;;;;;;8.77;74.75;101216.13;5017114;28;20021;-41
2021/10/22 05:41:16;;;;;;;9.25;1.60;;;;;;;8.75;74.27;101219.84;5017117;28;20029;-41
2021/10/22 05:43:41;;;;;;;7.47;1.58;;;;;;;8.70;73.08;101204.06;5016649;28;20050;-41
2021/10/22 05:46:07;;;;;;;7.07;1.63;;;;;;;8.75;73.70;101205.19;4999206;28;20026;-42
2021/10/22 05:48:33;;;;;;;8.23;1.40;;;;;;;8.68;73.55;101200.84;5016889;28;20056;-42
2021/10/22 05:51:00;;;;;;;11.73;1.58;;;;;;;8.62;74.79;101206.66;4998907;28;20540;-42
2021/10/22 05:53:25;;;;;;;11.88;1.60;;;;;;;8.66;74.47;101195.03;5016569;28;20034;-41
2021/10/22 05:55:51;;;;;;;7.53;1.55;;;;;;;8.79;71.65;101195.34;5017069;28;20088;-42
2021/10/22 05:58:16;;;;;;;9.40;1.98;;;;;;;8.79;72.08;101200.50;5016411;28;20358;-46
2021/10/22 06:00:43;;;;;;;14.10;2.03;;;;;;;8.70;72.92;101191.97;5016676;28;20022;-42
2021/10/22 06:03:08;;;;;;;10.93;1.98;;;;;;;8.64;73.58;101200.38;4999004;28;20062;-42
2021/10/22 06:05:33;;;;;;;9.70;1.50;;;;;;;8.77;71.93;101205.00;5016636;28;20053;-42
2021/10/22 06:07:59;;;;;;;11.70;1.55;;;;;;;8.77;73.03;101198.06;4998795;28;20112;-42
2021/10/22 06:10:25;;;;;;;9.77;1.77;;;;;;;8.68;72.07;101208.56;5016460;28;20022;-42
2021/10/22 06:12:50;;;;;;;8.27;2.20;;;;;;;8.73;71.26;101188.28;5016403;28;20491;-42
2021/10/22 06:15:15;;;;;;;16.08;1.73;;;;;;;8.75;71.11;101201.81;5016407;28;20443;-41
2021/10/22 06:17:41;;;;;;;9.32;1.50;;;;;;;8.80;71.15;101208.09;5016144;28;20025;-42
2021/10/22 06:20:12;;;;;;;10.77;1.73;;;;;;;8.70;71.57;101215.16;5016092;28;20033;-42
2021/10/22 06:25:21;;;;;;;10.32;1.85;;;;;;;8.71;72.20;101224.50;5016267;28;20447;-42
2021/10/22 06:27:49;;;;;;;8.82;1.67;;;;;;;8.58;73.16;101213.91;5016172;28;20023;-41
2021/10/22 06:30:16;;;;;;;12.15;1.67;;;;;;;8.67;72.26;101223.22;5016084;28;20484;-42
2021/10/22 06:32:41;;;;;;;12.50;1.70;;;;;;;8.78;72.29;101225.47;5015829;28;20032;-42
2021/10/22 06:35:07;;;;;;;13.52;1.90;;;;;;;8.88;72.64;101221.91;5016033;28;20033;-41
2021/10/22 06:37:32;;;;;;;7.45;1.60;;;;;;;8.87;72.98;101231.41;5015945;28;20045;-41
2021/10/22 06:39:57;;;;;;;11.80;1.90;;;;;;;8.94;72.56;101224.63;5015967;28;20052;-42
2021/10/22 06:42:23;;;;;;;8.00;1.73;;;;;;;9.10;71.94;101228.13;5015404;28;20042;-42
2021/10/22 06:44:48;;;;;;;8.70;1.73;;;;;;;9.13;71.34;101230.38;5015658;28;20429;-42
2021/10/22 06:47:14;;;;;;;11.25;1.63;;;;;;;9.13;72.95;101223.44;5015318;28;20124;-51
2021/10/22 06:49:40;;;;;;;12.52;2.03;;;;;;;9.12;71.15;101229.59;4997641;28;20033;-42
2021/10/22 06:52:05;;;;;;;7.35;1.95;;;;;;;9.12;73.73;101231.34;4997983;28;20462;-41
2021/10/22 06:54:31;;;;;;;8.40;1.70;;;;;;;9.14;71.52;101224.25;5015652;28;20049;-42
2021/10/22 06:56:56;;;;;;;14.52;2.22;;;;;;;9.23;73.04;101233.56;4997855;28;20472;-42
2021/10/22 06:59:22;;;;;;;10.68;1.88;;;;;;;9.25;71.83;101231.63;5015407;28;20026;-42
2021/10/22 07:01:47;;;;;;;13.40;2.42;;;;;;;9.35;72.13;101231.41;5015551;28;20022;-42
2021/10/22 07:04:13;;;;;;;7.45;2.03;;;;;;;9.31;72.49;101217.25;5015565;28;20029;-42
2021/10/22 07:09:24;;;;;;;9.88;1.60;;;;;;;9.35;72.43;101226.25;5015431;28;20091;-41
2021/10/22 07:11:49;;;;;;;13.60;2.30;;;;;;;9.30;72.97;101228.56;5015296;28;20397;-41
2021/10/22 07:14:15;;;;;;;11.65;1.77;;;;;;;9.29;73.74;101232.88;5015064;28;20037;-41
2021/10/22 07:16:42;;;;;;;11.23;1.80;;;;;;;9.37;73.04;101230.28;5015205;28;20029;-41
2021/10/22 07:19:07;;;;;;;11.00;1.90;;;;;;;9.55;72.78;101242.13;5015173;28;20032;-41
2021/10/22 07:21:37;;;;;;;17.10;2.03;;;;;;;9.70;71.86;101240.47;5015126;28;20022;-41
2021/10/22 07:24:06;;;;;;;11.05;2.05;;;;;;;10.00;72.15;101233.66;5014802;28;20030;-41
2021/10/22 07:26:31;;;;;;;10.05;2.15;;;;;;;10.72;68.89;101235.84;5014737;28;20030;-42
2021/10/22 07:28:57;;;;;;;16.73;2.13;;;;;;;10.60;68.15;101247.59;5015046;28;20024;-41
2021/10/22 07:31:22;;;;;;;12.43;1.90;;;;;;;10.00;71.01;101240.59;5014809;28;20044;-42
2021/10/22 07:33:48;;;;;;;11.65;2.17;;;;;;;9.75;70.72;101239.94;4997847;28;20056;-41
2021/10/22 07:36:14;;;;;;;13.38;2.47;;;;;;;9.66;71.98;101245.13;4997092;28;20018;-41
2021/10/22 07:38:43;;;;;;;15.52;2.10;;;;;;;9.80;71.64;101237.66;4997137;28;20026;-41
2021/10/22 07:41:08;;;;;;;17.23;2.40;;;;;;;12.30;62.79;101230.09;4996805;28;20018;-42
2021/10/22 07:43:34;;;;;;;10.82;1.80;;;;;;;13.44;59.57;101242.00;4996765;28;20071;-42
2021/10/22 07:46:00;;;;;;;10.88;2.30;;;;;;;13.03;59.46;101245.34;5014488;28;20057;-42
2021/10/22 07:48:25;;;;;;;11.65;1.98;;;;;;;11.46;65.03;101243.59;5014279;28;20392;-42
2021/10/22 07:50:51;;;;;;;16.40;2.03;;;;;;;14.20;57.82;101245.13;5014234;28;20388;-42
2021/10/22 07:53:16;;;;;;;10.18;2.13;;;;;;;13.79;59.24;101244.50;5014222;28;20465;-43
2021/10/22 07:55:43;;;;;;;11.18;2.05;;;;;;;11.90;64.96;101249.66;5014275;28;20018;-42
2021/10/22 07:58:08;;;;;;;10.50;2.45;;;;;;;11.59;65.59;101248.09;5014275;28;20030;-43
2021/10/22 08:00:34;;;;;;;13.90;2.13;;;;;;;12.18;64.62;101252.34;5013551;28;20067;-42
2021/10/22 08:02:59;;;;;;;16.05;2.55;;;;;;;11.52;66.81;101250.63;5014148;28;20022;-42
2021/10/22 08:05:25;;;;;;;11.45;2.17;;;;;;;11.24;68.03;101254.84;5014337;28;20025;-43
2021/10/22 08:07:50;;;;;;;13.23;1.90;;;;;;;11.02;68.12;101248.81;5014309;28;20025;-42
2021/10/22 08:10:15;;;;;;;17.73;2.35;;;;;;;11.27;68.23;101255.28;5014442;28;20108;-42
2021/10/22 08:12:41;;;;;;;13.43;2.20;;;;;;;11.10;68.01;101260.81;5014049;28;20156;-42
2021/10/22 08:15:07;;;;;;;15.05;2.60;;;;;;;11.12;68.71;101256.28;5014125;28;20032;-42
2021/10/22 08:17:33;;;;;;;14.13;2.22;;;;;;;10.96;69.71;101255.50;5013926;28;20030;-42
2021/10/22 08:22:29;;;;;;;12.48;1.95;;;;;;;11.02;68.93;101256.56;5014073;28;20034;-42
2021/10/22 08:25:00;;;;;;;15.80;2.50;;;;;;;11.04;68.71;101259.75;5013817;28;20053;-41
2021/10/22 08:27:27;;;;;;;14.65;2.42;;;;;;;10.87;70.07;101263.50;5014042;28;20116;-42
2021/10/22 08:29:52;;;;;;;11.10;1.92;;;;;;;10.86;70.63;101265.28;5013666;28;20044;-42
2021/10/22 08:32:18;;;;;;;16.05;1.95;;;;;;;10.69;70.82;101267.22;5014000;28;20026;-42
2021/10/22 08:34:43;;;;;;;14.32;2.10;;;;;;;10.70;72.29;101283.50;5013718;28;20033;-44
2021/10/22 08:37:08;;;;;;;9.98;2.28;;;;;;;10.58;73.70;101265.84;4996096;28;20025;-41
2021/10/22 08:39:33;;;;;;;16.92;2.80;;;;;;;10.56;75.97;101285.09;5013742;28;20018;-42
2021/10/22 08:41:59;;;;;;;12.25;2.50;;;;;;;10.48;75.18;101285.16;5013410;28;20377;-41
2021/10/22 08:44:27;;;;;;;16.38;2.72;;;;;;;10.39;76.40;101277.47;5013899;28;20104;-42
2021/10/22 08:46:52;;;;;;;18.23;2.30;;;;;;;10.49;77.25;101291.94;5013552;28;20061;-42
2021/10/22 08:49:18;;;;;;;11.00;2.20;;;;;;;10.39;76.94;101290.41;5013909;28;20057;-42
2021/10/22 08:51:44;;;;;;;17.90;2.45;;;;;;;10.51;76.71;101295.16;5013752;28;20026;-41
2021/10/22 08:54:12;;;;;;;15.85;2.47;;;;;;;10.46;78.23;101306.00;5013799;28;20432;-41
2021/10/22 08:56:41;;;;;;;10.73;2.05;;;;;;;10.31;78.62;101324.03;5013466;28;20101;-45
2021/10/22 08:59:07;;;;;;;20.10;2.63;;;;;;;10.19;79.98;101320.22;4995808;28;20084;-41
2021/10/22 09:01:33;;;;;;;16.58;2.60;;;;;;;10.18;79.91;101308.25;5013603;28;20022;-41
2021/10/22 09:03:58;;;;;;;14.85;2.38;;;;;;;10.10;80.54;101305.75;4995714;28;20429;-41
2021/10/22 09:06:24;;;;;;;20.58;3.25;;;;;;;10.34;79.57;101318.53;5013370;28;20033;-41
2021/10/22 09:08:56;;;;;;;15.52;2.20;;;;;;;10.27;81.09;101314.19;5013313;28;20441;-42
2021/10/22 09:11:24;;;;;;;14.35;2.65;;;;;;;10.31;81.22;101318.88;5014825;28;20416;-41
2021/10/22 09:14:13;;;;;;;21.00;2.47;;;;;;;10.27;81.06;101322.78;5017483;28;20108;-41
2021/10/22 09:16:53;;;;;;;12.00;2.70;;;;;;;10.50;80.15;101319.38;5018197;28;20029;-41
2021/10/22 09:19:36;;;;;;;23.90;2.60;;;;;;;10.68;79.17;101327.66;5017161;28;20100;-41
2021/10/22 09:22:22;;;;;;;24.02;2.90;;;;;;;10.84;77.08;101327.50;5017359;28;20048;-41
2021/10/22 09:24:53;;;;;;;13.93;1.95;;;;;;;11.10;76.40;101333.25;5017031;28;20026;-42
2021/10/22 09:27:44;;;;;;;15.35;2.42;;;;;;;12.00;72.47;101330.47;5017178;28;20021;-41
2021/10/22 09:30:26;;;;;;;14.02;2.47;;;;;;;12.12;71.37;101351.53;5017126;28;20029;-42
2021/10/22 09:32:58;;;;;;;18.20;2.38;;;;;;;11.30;76.01;101334.34;5016830;28;20022;-42
2021/10/22 09:35:50;;;;;;;16.88;2.65;;;;;;;11.11;76.60;101337.47;5016812;28;20026;-41
2021/10/22 09:38:19;;;;;;;16.67;2.33;;;;;;;11.10;76.13;101351.34;5016754;28;20501;-41
2021/10/22 09:40:50;;;;;;;20.95;2.50;;;;;;;11.95;73.86;101353.53;5016840;28;20067;-41
2021/10/22 09:43:24;;;;;;;11.63;2.60;;;;;;;12.09;72.01;101355.28;5016447;28;20046;-41
2021/10/22 09:46:06;;;;;;;16.85;2.10;;;;;;;11.45;73.77;101352.44;5016623;28;20041;-41
2021/10/22 09:48:32;;;;;;;12.90;2.35;;;;;;;11.51;73.32;101360.31;5016954;28;20061;-41
2021/10/22 09:51:26;;;;;;;14.27;2.50;;;;;;;11.55;73.66;101345.22;5016461;28;20481;-41
2021/10/22 09:53:53;;;;;;;17.08;2.50;;;;;;;11.49;71.87;101346.75;5016427;28;20092;-42
2021/10/22 09:56:23;;;;;;;10.65;1.90;;;;;;;12.86;68.55;101346.84;5016410;28;20021;-41
2021/10/22 09:59:07;;;;;;;17.65;2.40;;;;;;;13.71;66.24;101357.94;4999384;28;20041;-41
2021/10/22 10:01:42;;;;;;;11.23;2.20;;;;;;;15.84;57.13;101355.38;5016258;28;20018;-42
2021/10/22 10:04:11;;;;;;;16.27;2.40;;;;;;;19.01;50.64;101368.88;5016267;28;20018;-42
2021/10/22 10:06:38;;;;;;;12.40;2.25;;;;;;;20.40;45.54;101363.44;5016113;28;20026;-42
2021/10/22 10:09:06;;;;;;;8.43;2.22;;;;;;;20.63;43.88;101356.44;5016167;28;20017;-42
2021/10/22 10:11:31;;;;;;;10.52;2.20;;;;;;;21.10;42.98;101356.88;5016236;28;20026;-43
2021/10/22 10:13:58;;;;;;;7.65;2.17;;;;;;;18.75;48.73;101367.50;5016086;28;20093;-43
2021/10/22 10:16:29;;;;;;;12.32;2.38;;;;;;;17.79;51.82;101376.09;5016311;28;20038;-49
2021/10/22 10:19:00;;;;;;;13.68;2.70;;;;;;;18.10;51.00;101382.16;4998173;28;20181;-41
2021/10/22 10:21:27;;;;;;;12.23;2.17;;;;;;;16.85;55.63;101385.06;5016294;28;20041;-41
2021/10/22 10:23:54;;;;;;;12.35;2.40;;;;;;;16.89;54.49;101387.06;5015424;28;20036;-41
2021/10/22 10:26:23;;;;;;;11.85;2.55;;;;;;;18.88;49.72;101375.94;5016120;28;20044;-42
2021/10/22 10:28:50;;;;;;;16.05;2.60;;;;;;;17.70;52.73;101369.53;5015705;28;20030;-41
2021/10/22 10:31:33;;;;;;;15.77;2.40;;;;;;;17.55;51.48;101366.50;5015650;28;20093;-42
2021/10/22 10:34:01;;;;;;;15.02;2.35;;;;;;;16.75;57.17;101398.59;5016105;28;20026;-41
2021/10/22 10:36:46;;;;;;;16.73;2.53;;;;;;;14.82;60.94;101393.25;4998678;28;20076;-41
2021/10/22 10:39:13;;;;;;;16.08;2.85;;;;;;;13.97;63.49;101385.03;5015512;28;20029;-41
2021/10/22 10:41:38;;;;;;;13.15;2.72;;;;;;;13.44;66.05;101389.97;5015590;28;20117;-42
2021/10/22 10:44:23;;;;;;;12.40;2.58;;;;;;;12.81;66.82;101372.53;4997696;28;20165;-42
2021/10/22 10:46:48;;;;;;;13.75;2.35;;;;;;;13.07;65.67;101397.88;5015764;28;20033;-43
2021/10/22 10:49:46;;;;;;;11.65;2.03;;;;;;;13.20;66.06;101391.97;4997887;28;20030;-42
2021/10/22 10:52:37;;;;;;;20.65;3.08;;;;;;;13.30;66.21;101384.69;5003506;28;20366;-42
2021/10/22 10:55:30;;;;;;;12.85;2.10;;;;;;;13.11;66.22;101382.72;5015232;28;20113;-42
2021/10/22 10:58:07;;;;;;;13.82;2.40;;;;;;;13.27;67.62;101387.66;5015485;28;20052;-42
2021/10/22 11:00:47;;;;;;;13.68;2.60;;;;;;;15.85;59.47;101398.69;5015375;28;20105;-42
2021/10/22 11:03:16;;;;;;;22.35;2.55;;;;;;;17.67;51.69;101398.75;5015327;28;20384;-42
2021/10/22 11:08:13;;;;;;;14.75;2.38;;;;;;;13.91;64.27;101404.78;5015794;28;20029;-42
2021/10/22 11:11:14;;;;;;;13.70;2.28;;;;;;;13.64;64.75;101413.47;5014745;28;20025;-42
2021/10/22 11:13:45;;;;;;;11.60;2.20;;;;;;;14.63;61.69;101416.41;5015172;28;20030;-41
2021/10/22 11:16:40;;;;;;;13.15;2.30;;;;;;;13.12;67.53;101417.25;5014763;28;20026;-41
2021/10/22 11:19:17;;;;;;;13.57;2.20;;;;;;;12.42;68.97;101414.44;5014667;28;20026;-41
2021/10/22 11:21:43;;;;;;;10.98;2.20;;;;;;;12.38;72.17;101413.19;5014694;28;20026;-42
2021/10/22 11:24:14;;;;;;;10.52;2.05;;;;;;;12.41;72.70;101420.59;5014839;28;20033;-41
2021/10/22 11:26:39;;;;;;;12.27;2.13;;;;;;;12.17;73.23;101419.16;5014897;28;20025;-41
2021/10/22 11:29:19;;;;;;;12.07;2.20;;;;;;;12.16;72.49;101427.88;5015122;28;20033;-41
2021/10/22 11:31:52;;;;;;;10.15;1.88;;;;;;;12.18;72.53;101426.72;5014480;28;20123;-41
2021/10/22 11:34:19;;;;;;;11.77;1.85;;;;;;;12.08;71.96;101431.38;5014658;28;20021;-41
2021/10/22 11:39:49;;;;;;;12.32;2.10;;;;;;;12.40;70.96;101442.34;5012546;28;20049;-42
2021/10/22 11:42:22;;;;;;;18.85;2.17;;;;;;;12.27;71.13;101442.19;5014364;28;20497;-42